Time;durP1;ratioP1;P1;durP2;ratioP2;P2;SDS_P1;SDS_P2;PMS_P1;PMS_P2;Temp;Humidity;BMP_temperature;BMP_pressure;BME280_temperature;BME280_humidity;BME280_pressure;Samples;Min_cycle;Max_cycle;Signal;HPM_P1;HPM_P2
2021/01/27 00:01:56;;;;;;;11.50;7.60;;;;;;;1.95;74.91;99177.50;4994766;28;20238;-82
2021/01/27 00:04:23;;;;;;;8.25;6.28;;;;;;;1.98;75.01;99182.69;4954200;28;20482;-81
2021/01/27 00:06:49;;;;;;;10.48;7.60;;;;;;;1.96;75.04;99174.81;4941031;28;20229;-81
2021/01/27 00:09:15;;;;;;;9.43;6.97;;;;;;;1.94;74.69;99170.47;4963585;28;20235;-82
2021/01/27 00:11:41;;;;;;;11.55;7.10;;;;;;;1.93;75.00;99168.72;4971372;28;24146;-81
2021/01/27 00:14:09;;;;;;;9.50;7.22;;;;;;;1.92;75.15;99167.00;4997073;28;20222;-81
2021/01/27 00:16:35;;;;;;;12.45;7.75;;;;;;;1.83;75.21;99157.53;4993788;28;20215;-81
2021/01/27 00:19:03;;;;;;;11.70;7.47;;;;;;;1.87;75.53;99153.84;4990686;28;20254;-81
2021/01/27 00:21:29;;;;;;;12.68;8.32;;;;;;;1.87;75.24;99148.56;4978202;28;20241;-81
2021/01/27 00:23:55;;;;;;;10.90;8.00;;;;;;;1.79;75.83;99137.31;4972898;28;20324;-81
2021/01/27 00:26:21;;;;;;;9.65;7.80;;;;;;;1.91;75.34;99129.00;4992946;28;20272;-80
2021/01/27 00:28:47;;;;;;;12.60;7.00;;;;;;;1.72;75.71;99138.44;4974391;28;20210;-80
2021/01/27 00:31:16;;;;;;;11.10;8.25;;;;;;;1.77;75.41;99136.53;4986160;28;20220;-81
2021/01/27 00:33:43;;;;;;;10.77;7.25;;;;;;;1.65;76.02;99134.22;4971945;28;20242;-81
2021/01/27 00:36:09;;;;;;;11.35;7.80;;;;;;;1.73;75.57;99137.50;4987963;28;20311;-81
2021/01/27 00:38:35;;;;;;;11.55;8.23;;;;;;;1.71;76.27;99136.69;4955513;28;20202;-81
2021/01/27 00:41:01;;;;;;;9.05;6.32;;;;;;;1.49;76.38;99137.38;4990188;28;20192;-81
2021/01/27 00:43:27;;;;;;;11.93;7.40;;;;;;;1.77;75.73;99136.53;4970731;28;20227;-81
2021/01/27 00:45:54;;;;;;;9.68;7.47;;;;;;;1.76;75.40;99134.78;4988029;28;20289;-81
2021/01/27 00:48:21;;;;;;;10.52;7.82;;;;;;;1.70;75.68;99134.97;4974197;28;20235;-81
2021/01/27 00:50:47;;;;;;;14.02;8.30;;;;;;;1.63;76.36;99133.44;4973857;28;20255;-81
2021/01/27 00:53:14;;;;;;;12.10;8.25;;;;;;;1.57;76.17;99130.94;4977049;28;20196;-81
2021/01/27 00:55:45;;;;;;;10.45;7.97;;;;;;;1.65;75.99;99126.28;4983534;28;20239;-81
2021/01/27 00:58:12;;;;;;;9.73;7.53;;;;;;;1.58;76.19;99123.84;4994370;28;20661;-81
2021/01/27 01:00:42;;;;;;;11.73;7.15;;;;;;;1.61;76.35;99119.31;4980045;28;20286;-81
2021/01/27 01:03:16;;;;;;;11.85;8.25;;;;;;;1.61;76.14;99108.72;4994353;28;20250;-82
2021/01/27 01:05:44;;;;;;;9.88;7.30;;;;;;;1.58;76.42;99107.94;4978900;28;20323;-82
2021/01/27 01:08:14;;;;;;;9.95;7.18;;;;;;;1.60;76.18;99107.00;4994314;28;20271;-82
2021/01/27 01:10:47;;;;;;;12.88;7.60;;;;;;;1.59;76.42;99107.91;4996107;28;20226;-81
2021/01/27 01:13:17;;;;;;;10.48;7.60;;;;;;;1.49;76.32;99109.09;4991745;28;20227;-81
2021/01/27 01:15:43;;;;;;;10.05;7.82;;;;;;;1.58;76.56;99100.88;4973365;28;20235;-80
2021/01/27 01:18:11;;;;;;;12.55;8.40;;;;;;;1.62;76.15;99107.81;4974224;28;20611;-81
2021/01/27 01:20:38;;;;;;;9.10;7.18;;;;;;;1.60;76.19;99107.00;4968167;28;20209;-81
2021/01/27 01:23:04;;;;;;;9.18;7.10;;;;;;;1.57;76.58;99115.06;4992465;28;20209;-81
2021/01/27 01:25:33;;;;;;;13.65;8.23;;;;;;;1.53;76.57;99104.56;4966184;28;20269;-81
2021/01/27 01:28:00;;;;;;;10.30;7.20;;;;;;;1.46;76.88;99098.59;4995959;28;20215;-80
2021/01/27 01:30:32;;;;;;;16.33;8.40;;;;;;;1.67;76.57;99095.28;5009672;28;20323;-81
2021/01/27 01:33:02;;;;;;;9.85;7.40;;;;;;;1.59;76.53;99099.97;4966071;28;20233;-81
2021/01/27 01:35:28;;;;;;;11.93;8.10;;;;;;;1.55;76.28;99095.66;4992314;28;20219;-81
2021/01/27 01:37:55;;;;;;;12.20;7.13;;;;;;;1.64;76.35;99089.22;4978819;28;20207;-81
2021/01/27 01:40:28;;;;;;;11.90;7.70;;;;;;;1.72;76.21;99103.97;4978678;28;20241;-80
2021/01/27 01:43:28;;;;;;;9.52;7.75;;;;;;;1.72;76.04;99106.63;4992449;28;20219;-80
2021/01/27 01:45:59;;;;;;;13.75;7.90;;;;;;;1.65;76.44;99104.19;4963450;28;20238;-81
2021/01/27 01:48:32;;;;;;;9.52;7.75;;;;;;;1.61;76.76;99087.53;4984902;28;20231;-82
2021/01/27 01:51:04;;;;;;;15.48;8.80;;;;;;;1.70;76.30;99097.88;4968128;28;20259;-81
2021/01/27 01:53:31;;;;;;;15.63;8.00;;;;;;;1.62;76.22;99089.25;4949015;28;20579;-82
2021/01/27 01:56:01;;;;;;;10.02;7.78;;;;;;;1.67;76.28;99089.16;4941394;29;20203;-81
2021/01/27 01:58:28;;;;;;;7.78;6.95;;;;;;;1.71;76.14;99086.34;4958485;28;20255;-81
2021/01/27 02:00:59;;;;;;;12.63;7.53;;;;;;;1.77;75.83;99080.84;4972709;28;20227;-81
2021/01/27 02:03:27;;;;;;;10.38;7.65;;;;;;;1.72;76.03;99064.22;4970113;28;20271;-82
2021/01/27 02:06:02;;;;;;;15.05;7.78;;;;;;;1.72;76.22;99069.53;4953173;28;20219;-79
2021/01/27 02:08:31;;;;;;;8.40;7.20;;;;;;;1.79;75.56;99064.88;4967859;28;20196;-79
2021/01/27 02:10:58;;;;;;;10.40;7.05;;;;;;;1.81;75.70;99065.72;4978480;28;20253;-80
2021/01/27 02:13:36;;;;;;;10.80;8.05;;;;;;;1.76;75.57;99065.88;4992030;28;20219;-79
2021/01/27 02:16:24;;;;;;;11.63;8.13;;;;;;;1.91;75.70;99061.84;4980940;28;20227;-80
2021/01/27 02:19:13;;;;;;;9.35;7.75;;;;;;;1.93;75.18;99066.19;4988325;28;20615;-80
2021/01/27 02:22:07;;;;;;;12.45;7.88;;;;;;;1.84;75.54;99061.19;4966029;28;20219;-80
2021/01/27 02:24:58;;;;;;;12.40;8.07;;;;;;;1.89;75.58;99053.97;4988239;28;20226;-80
2021/01/27 02:27:31;;;;;;;15.73;8.18;;;;;;;1.85;75.36;99054.97;4958566;28;20231;-80
2021/01/27 02:30:03;;;;;;;12.30;8.10;;;;;;;1.79;75.66;99052.50;4949180;28;20231;-80
2021/01/27 02:32:41;;;;;;;14.52;7.40;;;;;;;1.75;76.14;99060.63;4974335;28;20596;-79
2021/01/27 02:35:35;;;;;;;9.75;7.18;;;;;;;1.87;75.80;99045.16;4979600;28;20223;-80
2021/01/27 02:38:52;;;;;;;9.45;8.40;;;;;;;1.88;75.54;99044.25;4972367;28;20227;-80
2021/01/27 02:41:21;;;;;;;11.98;8.10;;;;;;;1.99;75.91;99044.78;4954381;28;20311;-80
2021/01/27 02:43:51;;;;;;;11.75;8.15;;;;;;;2.04;75.44;99044.63;4950439;29;20247;-81
2021/01/27 02:46:27;;;;;;;13.73;7.80;;;;;;;1.92;75.30;99042.38;4960746;28;20231;-80
2021/01/27 02:49:12;;;;;;;12.23;8.02;;;;;;;2.01;75.63;99039.44;4966632;28;20231;-80
2021/01/27 02:51:54;;;;;;;11.77;8.25;;;;;;;2.02;75.78;99026.13;4979597;28;20225;-79
2021/01/27 02:54:30;;;;;;;15.07;7.95;;;;;;;2.08;75.53;99025.91;4947374;28;20235;-80
2021/01/27 02:57:20;;;;;;;11.32;8.32;;;;;;;2.17;75.36;99030.91;4957447;28;20737;-80
2021/01/27 03:00:26;;;;;;;13.88;8.07;;;;;;;2.17;74.96;99036.22;4938788;28;20234;-80
2021/01/27 03:03:00;;;;;;;13.00;8.20;;;;;;;2.21;75.02;99032.53;4932740;29;20327;-80
2021/01/27 03:05:34;;;;;;;10.10;7.30;;;;;;;2.23;74.79;99025.41;4935737;29;20302;-79
2021/01/27 03:08:03;;;;;;;11.30;7.85;;;;;;;2.13;75.10;99018.66;4930834;29;20271;-80
2021/01/27 03:10:38;;;;;;;10.20;7.75;;;;;;;2.13;75.22;99009.84;4970421;28;20227;-80
2021/01/27 03:13:04;;;;;;;13.95;8.75;;;;;;;2.18;75.18;99016.72;4953534;29;20235;-80
2021/01/27 03:15:30;;;;;;;15.13;8.77;;;;;;;2.14;75.02;99009.81;4953496;28;20231;-80
2021/01/27 03:18:00;;;;;;;14.30;8.32;;;;;;;2.16;74.97;99002.66;4969225;28;20310;-80
2021/01/27 03:20:34;;;;;;;10.68;7.80;;;;;;;2.18;74.88;98999.97;4953754;28;20199;-80
2021/01/27 03:23:17;;;;;;;10.10;7.90;;;;;;;2.20;75.50;99004.25;4952556;29;20702;-80
2021/01/27 03:26:32;;;;;;;13.77;8.05;;;;;;;2.42;74.64;99015.00;4955273;28;20286;-80
2021/01/27 03:29:19;;;;;;;13.15;8.13;;;;;;;2.41;74.44;99002.66;4952487;28;20753;-80
2021/01/27 03:31:46;;;;;;;11.13;7.55;;;;;;;2.42;73.96;98994.66;4973198;28;20944;-80
2021/01/27 03:34:23;;;;;;;13.55;8.63;;;;;;;2.46;74.06;98996.28;4943714;28;20276;-80
2021/01/27 03:37:01;;;;;;;13.90;8.45;;;;;;;2.61;73.78;98984.22;4974361;28;20228;-81
2021/01/27 03:39:33;;;;;;;9.65;7.20;;;;;;;2.61;73.37;98993.06;4963672;28;20229;-81
2021/01/27 03:42:06;;;;;;;12.27;7.63;;;;;;;2.59;73.75;98986.09;4957009;29;20224;-80
2021/01/27 03:44:44;;;;;;;11.65;8.20;;;;;;;2.66;73.44;98988.47;4952973;28;20239;-80
2021/01/27 03:47:13;;;;;;;12.07;7.22;;;;;;;2.65;73.66;98985.88;4971233;28;20223;-80
2021/01/27 03:49:58;;;;;;;12.05;7.88;;;;;;;2.46;74.72;98979.50;4967496;29;20232;-80
2021/01/27 03:52:35;;;;;;;14.50;8.30;;;;;;;2.32;75.78;98976.47;4954008;28;20279;-80
2021/01/27 03:55:12;;;;;;;9.95;7.55;;;;;;;2.38;76.40;98976.25;4946182;28;20283;-80
2021/01/27 03:57:45;;;;;;;15.82;9.05;;;;;;;2.28;77.30;98969.53;4950492;28;20239;-80
2021/01/27 04:00:12;;;;;;;17.17;8.77;;;;;;;2.24;78.14;98974.06;4953320;29;20243;-80
2021/01/27 04:02:39;;;;;;;14.43;8.32;;;;;;;2.29;78.78;98955.34;4956350;28;20203;-80
2021/01/27 04:05:06;;;;;;;13.55;8.70;;;;;;;2.33;78.83;98954.31;4971182;28;20228;-81
2021/01/27 04:07:32;;;;;;;14.15;8.65;;;;;;;2.31;79.66;98962.31;4949813;29;20231;-81
2021/01/27 04:09:58;;;;;;;13.30;8.60;;;;;;;2.20;79.84;98967.13;4979874;28;20223;-80
2021/01/27 04:12:24;;;;;;;13.48;7.63;;;;;;;2.06;80.50;98961.44;4952547;28;20278;-80
2021/01/27 04:14:50;;;;;;;13.88;7.10;;;;;;;2.04;80.97;98955.34;4952968;28;20235;-80
2021/01/27 04:17:27;;;;;;;12.60;8.57;;;;;;;2.03;81.92;98948.31;4953985;29;20571;-80
2021/01/27 04:19:54;;;;;;;14.00;8.52;;;;;;;2.07;82.11;98939.31;4937548;29;20242;-81
2021/01/27 04:22:21;;;;;;;17.58;9.77;;;;;;;2.06;81.87;98942.88;4945894;28;20568;-80
2021/01/27 04:24:47;;;;;;;13.63;10.13;;;;;;;2.16;82.58;98938.13;4950907;28;20227;-79
2021/01/27 04:27:13;;;;;;;13.18;9.45;;;;;;;2.20;81.99;98926.50;4960424;28;20232;-80
2021/01/27 04:29:39;;;;;;;15.52;9.77;;;;;;;2.11;81.93;98913.53;4948570;28;20200;-79
2021/01/27 04:32:05;;;;;;;17.08;8.52;;;;;;;1.99;82.51;98904.25;4937722;29;20307;-80
2021/01/27 04:34:33;;;;;;;15.70;9.77;;;;;;;1.99;82.86;98906.91;4955467;28;20227;-80
2021/01/27 04:37:00;;;;;;;15.98;7.63;;;;;;;2.00;82.91;98905.97;4958254;28;20235;-81
2021/01/27 04:39:27;;;;;;;15.55;9.95;;;;;;;1.99;82.91;98898.09;4948159;28;20345;-81
2021/01/27 04:41:54;;;;;;;12.40;8.82;;;;;;;1.99;82.85;98909.53;4956431;28;20223;-80
2021/01/27 04:44:21;;;;;;;15.73;9.30;;;;;;;1.91;83.40;98914.25;4959512;29;20718;-80
2021/01/27 04:47:13;;;;;;;12.82;8.00;;;;;;;1.93;83.37;98909.75;4947200;29;20247;-81
2021/01/27 04:49:59;;;;;;;14.80;8.75;;;;;;;1.90;83.14;98904.56;4939808;29;20606;-81
2021/01/27 04:53:02;;;;;;;17.50;8.90;;;;;;;1.96;83.78;98896.41;4933336;28;20228;-82
2021/01/27 04:56:13;;;;;;;14.15;8.95;;;;;;;1.78;83.32;98889.09;4950322;29;20239;-81
2021/01/27 04:58:42;;;;;;;16.42;9.38;;;;;;;1.87;83.74;98886.09;4963218;28;20216;-82
2021/01/27 05:01:25;;;;;;;15.93;9.00;;;;;;;1.85;83.63;98879.13;4980437;28;20223;-81
2021/01/27 05:04:34;;;;;;;16.83;9.43;;;;;;;1.84;83.78;98872.97;4974334;28;20311;-80
2021/01/27 05:07:07;;;;;;;14.18;9.88;;;;;;;1.90;83.73;98877.19;4946791;28;20227;-81
2021/01/27 05:09:48;;;;;;;16.33;9.95;;;;;;;1.82;83.79;98871.28;4966901;28;20267;-81
2021/01/27 05:12:16;;;;;;;17.67;11.30;;;;;;;1.88;83.42;98866.63;4968063;28;20240;-81
2021/01/27 05:14:46;;;;;;;14.43;9.02;;;;;;;1.93;83.45;98867.34;4941989;28;20706;-82
2021/01/27 05:17:15;;;;;;;16.10;10.68;;;;;;;1.91;83.49;98852.41;4958805;28;20216;-77
2021/01/27 05:19:46;;;;;;;16.95;9.77;;;;;;;1.94;83.47;98844.34;4958554;28;20228;-80
2021/01/27 05:22:14;;;;;;;17.00;8.30;;;;;;;2.01;83.22;98852.00;4956587;28;20223;-81
2021/01/27 05:24:42;;;;;;;13.88;9.40;;;;;;;2.03;82.78;98850.19;4967308;28;20283;-81
2021/01/27 05:27:15;;;;;;;11.27;7.38;;;;;;;1.87;82.46;98846.34;4943644;29;20224;-81
2021/01/27 05:29:49;;;;;;;13.65;8.40;;;;;;;1.89;83.00;98836.56;4973505;28;20285;-81
2021/01/27 05:32:16;;;;;;;14.85;9.40;;;;;;;1.94;82.77;98828.44;4974766;28;20234;-81
2021/01/27 05:34:45;;;;;;;12.10;8.75;;;;;;;2.08;82.68;98828.81;4955929;28;20516;-82
2021/01/27 05:37:30;;;;;;;13.23;8.35;;;;;;;2.02;82.62;98819.31;4975666;28;20231;-81
2021/01/27 05:40:20;;;;;;;10.70;7.60;;;;;;;1.98;82.74;98812.38;4947151;29;20235;-81
2021/01/27 05:42:47;;;;;;;10.88;7.30;;;;;;;2.04;82.31;98812.16;4961737;29;20216;-81
2021/01/27 05:45:37;;;;;;;14.95;9.70;;;;;;;1.96;82.83;98819.53;4970976;28;20234;-81
2021/01/27 05:48:34;;;;;;;12.68;8.85;;;;;;;2.00;82.86;98814.97;4973354;29;20231;-80
2021/01/27 05:51:01;;;;;;;14.25;8.65;;;;;;;2.00;82.44;98821.13;4971237;28;20246;-79
2021/01/27 05:53:29;;;;;;;10.37;7.93;;;;;;;2.13;82.71;98806.50;4978115;28;20208;-81
2021/01/27 05:56:09;;;;;;;13.27;8.98;;;;;;;2.27;81.90;98793.59;4964966;29;20547;-80
2021/01/27 05:58:39;;;;;;;11.85;8.60;;;;;;;2.25;81.70;98799.88;4968130;28;20235;-79
2021/01/27 06:01:37;;;;;;;14.70;8.88;;;;;;;2.18;82.16;98783.31;4965992;28;20230;-79
2021/01/27 06:04:11;;;;;;;13.20;8.10;;;;;;;2.23;81.62;98781.38;4968144;28;20242;-79
2021/01/27 06:06:57;;;;;;;12.75;9.05;;;;;;;2.11;82.34;98780.94;4981250;28;20200;-80
2021/01/27 06:09:35;;;;;;;14.35;8.80;;;;;;;2.08;82.34;98779.31;4972456;28;20307;-79
2021/01/27 06:12:11;;;;;;;18.15;8.57;;;;;;;2.03;82.27;98783.91;4965425;29;20235;-80
2021/01/27 06:14:38;;;;;;;14.90;9.60;;;;;;;2.10;82.70;98774.81;4971117;28;20236;-80
2021/01/27 06:17:24;;;;;;;11.52;7.85;;;;;;;1.88;83.17;98771.19;4963961;29;20265;-80
2021/01/27 06:20:15;;;;;;;11.63;8.43;;;;;;;2.02;82.88;98760.09;4928443;29;20220;-80
2021/01/27 06:22:51;;;;;;;10.93;7.85;;;;;;;1.96;82.92;98758.56;4949871;28;20224;-80
2021/01/27 06:25:26;;;;;;;12.75;8.32;;;;;;;2.01;83.44;98759.22;4964823;28;20286;-80
2021/01/27 06:28:14;;;;;;;15.50;8.32;;;;;;;2.05;83.05;98754.69;4962953;28;20231;-80
2021/01/27 06:30:49;;;;;;;13.90;9.00;;;;;;;2.01;83.32;98745.97;4953858;28;20220;-80
2021/01/27 06:34:02;;;;;;;11.27;8.20;;;;;;;2.15;83.20;98751.63;4978147;28;20231;-80
2021/01/27 06:36:39;;;;;;;11.02;7.20;;;;;;;1.94;83.26;98736.50;4980451;28;20271;-80
2021/01/27 06:39:27;;;;;;;9.23;6.95;;;;;;;1.90;83.68;98734.91;4964887;29;20250;-81
2021/01/27 06:42:44;;;;;;;16.17;8.18;;;;;;;1.86;83.69;98746.53;4949023;29;20256;-81
2021/01/27 06:45:13;;;;;;;12.55;7.80;;;;;;;1.94;83.92;98739.16;4924820;29;20372;-80
2021/01/27 06:47:57;;;;;;;10.23;6.80;;;;;;;1.96;84.07;98744.41;4893690;29;20208;-80
2021/01/27 06:50:54;;;;;;;9.82;6.90;;;;;;;2.11;83.31;98750.00;4963760;28;20196;-79
2021/01/27 06:53:35;;;;;;;8.93;6.72;;;;;;;2.16;82.64;98757.78;4966268;28;20192;-80
2021/01/27 06:56:01;;;;;;;9.75;5.65;;;;;;;2.11;82.92;98771.22;4957969;29;20672;-80
2021/01/27 06:58:39;;;;;;;7.27;5.43;;;;;;;2.07;82.97;98763.44;4939389;28;20227;-80
2021/01/27 07:01:24;;;;;;;10.90;6.45;;;;;;;2.18;82.88;98763.91;4949057;29;20934;-80
2021/01/27 07:04:06;;;;;;;11.40;6.25;;;;;;;2.14;83.22;98757.88;4971526;28;20235;-81
2021/01/27 07:06:50;;;;;;;8.65;6.10;;;;;;;1.95;83.45;98743.56;4945101;28;20234;-81
2021/01/27 07:09:40;;;;;;;8.23;5.22;;;;;;;1.90;84.05;98753.47;4952545;29;20762;-80
2021/01/27 07:12:18;;;;;;;7.70;6.07;;;;;;;1.91;85.04;98757.84;4965745;28;20228;-80
2021/01/27 07:15:12;;;;;;;8.05;6.03;;;;;;;2.06;84.81;98745.81;4971627;28;20226;-81
2021/01/27 07:18:01;;;;;;;8.35;6.55;;;;;;;2.06;84.34;98745.81;4961728;28;20181;-82
2021/01/27 07:20:35;;;;;;;6.80;5.88;;;;;;;2.03;84.22;98746.78;4942243;28;20267;-80
2021/01/27 07:23:17;;;;;;;9.00;5.50;;;;;;;1.91;84.03;98741.94;4973022;28;20564;-81
2021/01/27 07:25:59;;;;;;;8.70;5.75;;;;;;;1.96;84.67;98745.28;4955661;29;20286;-81
2021/01/27 07:28:45;;;;;;;7.50;5.65;;;;;;;1.97;84.60;98736.41;4957153;29;20227;-79
2021/01/27 07:31:32;;;;;;;9.80;5.35;;;;;;;1.98;84.85;98734.59;4951772;29;20235;-81
2021/01/27 07:34:26;;;;;;;6.43;5.03;;;;;;;2.01;84.63;98743.31;4974294;28;20248;-81
2021/01/27 07:37:02;;;;;;;5.45;4.72;;;;;;;1.94;84.24;98755.06;4968017;28;20231;-81
2021/01/27 07:39:48;;;;;;;5.90;5.03;;;;;;;2.04;84.36;98761.78;4954978;28;20231;-81
2021/01/27 07:42:17;;;;;;;6.60;5.15;;;;;;;1.98;84.75;98758.47;4932765;29;20223;-82
2021/01/27 07:44:49;;;;;;;5.88;4.78;;;;;;;1.86;85.23;98748.34;4954580;28;20236;-82
2021/01/27 07:47:21;;;;;;;5.13;4.53;;;;;;;1.88;85.56;98762.41;4954164;28;20196;-81
2021/01/27 07:49:54;;;;;;;6.75;5.15;;;;;;;1.90;86.03;98760.53;4967912;28;20228;-81
2021/01/27 07:52:30;;;;;;;5.85;4.40;;;;;;;1.78;86.20;98763.66;4951868;29;20224;-81
2021/01/27 07:55:16;;;;;;;7.80;6.70;;;;;;;1.84;86.60;98764.31;4952440;28;20337;-82
2021/01/27 07:58:00;;;;;;;8.05;4.53;;;;;;;1.85;86.70;98762.50;4938794;28;20224;-81
2021/01/27 08:01:00;;;;;;;7.07;4.60;;;;;;;1.90;86.98;98761.44;4960742;28;20630;-82
2021/01/27 08:03:39;;;;;;;6.85;5.22;;;;;;;1.92;87.03;98754.28;4983285;28;20237;-81
2021/01/27 08:06:12;;;;;;;5.13;4.20;;;;;;;1.88;87.19;98757.94;4972869;28;20223;-82
2021/01/27 08:08:47;;;;;;;6.88;4.07;;;;;;;1.75;87.13;98761.97;4926590;28;20215;-81
2021/01/27 08:11:19;;;;;;;5.50;4.00;;;;;;;1.78;87.12;98761.88;4959462;28;20227;-80
2021/01/27 08:13:45;;;;;;;3.70;3.30;;;;;;;1.71;87.25;98749.78;4960459;28;20255;-81
2021/01/27 08:16:14;;;;;;;4.03;3.25;;;;;;;1.80;87.38;98757.38;4974717;28;20256;-81
2021/01/27 08:19:26;;;;;;;4.68;3.78;;;;;;;1.74;87.71;98738.19;4965138;28;20236;-82
2021/01/27 08:21:56;;;;;;;4.60;2.75;;;;;;;1.64;87.78;98732.38;4923917;29;20244;-81
2021/01/27 08:24:35;;;;;;;5.35;3.63;;;;;;;1.62;88.03;98723.59;4953247;28;20231;-81
2021/01/27 08:27:10;;;;;;;4.63;2.97;;;;;;;1.74;88.38;98717.00;4958593;28;20255;-81
2021/01/27 08:29:56;;;;;;;3.72;2.90;;;;;;;1.77;87.96;98706.25;4972782;28;20285;-81
2021/01/27 08:32:36;;;;;;;5.78;3.45;;;;;;;1.85;87.24;98699.75;4938886;28;20228;-81
2021/01/27 08:35:31;;;;;;;5.00;3.28;;;;;;;1.95;86.90;98690.56;4987015;28;20212;-82
2021/01/27 08:38:16;;;;;;;3.65;2.33;;;;;;;1.98;86.26;98698.38;4964783;28;20235;-81
2021/01/27 08:40:45;;;;;;;3.22;2.70;;;;;;;2.08;86.18;98707.72;4949216;29;20259;-81
2021/01/27 08:43:14;;;;;;;2.42;2.20;;;;;;;1.98;85.61;98697.50;4988549;28;20247;-81
2021/01/27 08:45:45;;;;;;;2.78;1.80;;;;;;;1.95;85.37;98694.97;4959132;28;20287;-81
2021/01/27 08:48:16;;;;;;;2.55;1.90;;;;;;;2.00;85.60;98683.25;4979594;28;20228;-81
2021/01/27 08:50:52;;;;;;;2.03;1.67;;;;;;;1.88;85.99;98681.06;4959946;28;20618;-81
2021/01/27 08:53:22;;;;;;;4.80;3.90;;;;;;;2.02;86.07;98681.44;4962776;29;20294;-81
2021/01/27 08:55:59;;;;;;;4.53;2.88;;;;;;;2.07;85.57;98689.19;4956935;28;20220;-80
2021/01/27 08:58:39;;;;;;;2.00;1.80;;;;;;;2.06;85.55;98692.78;4958783;28;20594;-81
2021/01/27 09:01:33;;;;;;;2.25;1.90;;;;;;;2.07;85.84;98702.47;4958268;28;20239;-81
2021/01/27 09:04:35;;;;;;;1.95;1.50;;;;;;;2.09;85.57;98709.44;4949343;28;20237;-83
2021/01/27 09:07:05;;;;;;;2.15;1.85;;;;;;;2.04;86.15;98703.44;4956150;28;20239;-81
2021/01/27 09:09:41;;;;;;;2.50;1.90;;;;;;;2.01;86.32;98697.38;4946503;29;20217;-81
2021/01/27 09:12:09;;;;;;;1.98;1.80;;;;;;;2.01;86.12;98706.19;4955357;28;20295;-81
2021/01/27 09:14:36;;;;;;;2.72;2.25;;;;;;;2.01;86.12;98695.59;4946269;28;20243;-81
2021/01/27 09:17:05;;;;;;;2.20;1.65;;;;;;;1.96;86.24;98697.56;4968656;29;20197;-81
2021/01/27 09:19:36;;;;;;;2.28;1.70;;;;;;;1.99;86.34;98694.78;4970113;28;20239;-83
2021/01/27 09:22:12;;;;;;;2.10;1.50;;;;;;;2.03;85.41;98691.09;4969200;28;20211;-82
2021/01/27 09:24:49;;;;;;;1.30;1.20;;;;;;;2.03;84.51;98683.16;4955645;29;20227;-81
2021/01/27 09:27:35;;;;;;;1.33;1.20;;;;;;;2.10;84.79;98674.03;4967850;29;20747;-81
2021/01/27 09:30:11;;;;;;;1.70;1.52;;;;;;;2.08;84.70;98667.94;4957778;28;20232;-82
2021/01/27 09:32:40;;;;;;;2.22;1.95;;;;;;;2.15;85.07;98672.06;4971301;28;20247;-81
2021/01/27 09:35:26;;;;;;;3.17;2.20;;;;;;;2.24;84.95;98674.34;4972669;28;20999;-80
2021/01/27 09:37:58;;;;;;;2.30;2.05;;;;;;;2.34;85.27;98667.75;4958105;29;20247;-80
2021/01/27 09:40:38;;;;;;;2.58;2.20;;;;;;;2.34;84.52;98680.16;4957933;28;20231;-82
2021/01/27 09:43:09;;;;;;;2.60;1.77;;;;;;;2.45;84.16;98670.81;4960452;29;20250;-83
2021/01/27 09:45:37;;;;;;;3.25;1.75;;;;;;;2.49;83.88;98680.41;4959275;29;20295;-82
2021/01/27 09:48:05;;;;;;;2.08;1.80;;;;;;;2.51;83.21;98670.56;4976106;28;20228;-84
2021/01/27 09:50:32;;;;;;;3.42;2.60;;;;;;;2.68;82.92;98673.41;4973913;28;20204;-84
2021/01/27 09:53:03;;;;;;;3.30;2.97;;;;;;;2.72;82.38;98680.31;4968063;28;20240;-83
2021/01/27 09:55:33;;;;;;;2.10;1.80;;;;;;;2.63;81.91;98686.00;4966935;28;20239;-82
2021/01/27 09:58:03;;;;;;;2.95;2.15;;;;;;;2.67;82.40;98684.09;4960011;28;20228;-84
2021/01/27 10:00:37;;;;;;;1.95;1.63;;;;;;;2.72;80.97;98672.38;4961037;28;20211;-83
2021/01/27 10:03:11;;;;;;;1.90;1.70;;;;;;;2.74;81.44;98677.59;4951266;28;20238;-83
2021/01/27 10:05:41;;;;;;;2.33;2.13;;;;;;;2.85;80.43;98678.88;4978419;28;20222;-84
2021/01/27 10:08:16;;;;;;;1.92;1.73;;;;;;;2.83;80.42;98672.75;4944017;29;20200;-83
2021/01/27 10:11:24;;;;;;;3.38;2.10;;;;;;;2.88;80.55;98673.44;4937776;29;20221;-82
2021/01/27 10:14:04;;;;;;;3.53;2.00;;;;;;;2.76;80.60;98675.75;4960893;28;20247;-83
2021/01/27 10:16:58;;;;;;;2.75;2.33;;;;;;;2.75;80.60;98685.50;4955814;29;20220;-84
2021/01/27 10:19:37;;;;;;;3.20;2.60;;;;;;;2.77;79.88;98688.09;4952609;28;20236;-81
2021/01/27 10:22:06;;;;;;;2.40;2.20;;;;;;;3.11;79.01;98697.22;4976640;28;20314;-78
2021/01/27 10:24:53;;;;;;;2.25;2.05;;;;;;;3.05;79.93;98689.53;4940127;29;20235;-80
2021/01/27 10:27:45;;;;;;;4.63;2.35;;;;;;;2.89;79.99;98688.44;4945914;28;20582;-81
2021/01/27 10:30:17;;;;;;;2.92;2.53;;;;;;;2.78;80.06;98682.72;4971254;28;20215;-79
2021/01/27 10:32:50;;;;;;;2.50;2.30;;;;;;;2.61;80.80;98682.56;4919805;29;20213;-79
2021/01/27 10:35:24;;;;;;;2.45;2.22;;;;;;;2.54;81.60;98699.66;4940725;29;20216;-80
2021/01/27 10:38:16;;;;;;;2.88;2.65;;;;;;;2.49;81.84;98693.66;4907174;29;20242;-81
2021/01/27 10:41:09;;;;;;;3.78;2.60;;;;;;;2.67;82.08;98697.34;4884231;29;20228;-81
2021/01/27 10:43:42;;;;;;;4.40;3.20;;;;;;;2.68;82.23;98699.06;4976791;28;20271;-81
2021/01/27 10:46:41;;;;;;;3.90;2.30;;;;;;;2.64;82.14;98697.50;4960030;28;20290;-81
2021/01/27 10:49:09;;;;;;;3.00;2.80;;;;;;;2.57;81.97;98691.56;4932627;28;20736;-81
2021/01/27 10:51:35;;;;;;;4.80;3.00;;;;;;;2.67;82.86;98700.88;4956882;29;20254;-82
2021/01/27 10:54:01;;;;;;;5.35;3.20;;;;;;;2.64;82.36;98703.66;4970774;28;20714;-80
2021/01/27 10:56:27;;;;;;;4.10;3.08;;;;;;;2.72;82.28;98701.56;4962257;28;20210;-80
2021/01/27 10:58:53;;;;;;;3.75;3.35;;;;;;;2.70;82.24;98702.56;4943588;29;20236;-81
2021/01/27 11:01:19;;;;;;;3.00;2.72;;;;;;;2.62;82.26;98710.81;4967296;28;20240;-80
2021/01/27 11:03:46;;;;;;;5.70;3.33;;;;;;;2.61;82.47;98717.06;4973161;28;20283;-80
2021/01/27 11:06:13;;;;;;;5.13;3.60;;;;;;;2.66;82.51;98712.44;4956532;28;20252;-80
2021/01/27 11:08:43;;;;;;;4.70;4.20;;;;;;;2.73;82.54;98686.47;4976730;28;20345;-80
2021/01/27 11:11:09;;;;;;;3.20;2.40;;;;;;;2.59;82.42;98673.81;4964130;28;20202;-80
2021/01/27 11:13:36;;;;;;;4.50;3.10;;;;;;;2.63;82.66;98674.53;4973741;28;20227;-80
2021/01/27 11:16:06;;;;;;;4.55;3.67;;;;;;;2.65;82.33;98668.22;4942475;28;20707;-80
2021/01/27 11:18:34;;;;;;;5.03;3.78;;;;;;;2.71;82.27;98680.38;4977081;28;20235;-81
2021/01/27 11:21:01;;;;;;;4.70;4.20;;;;;;;2.81;81.44;98685.25;4956250;28;20228;-79
2021/01/27 11:23:27;;;;;;;6.40;3.97;;;;;;;2.69;81.17;98682.25;4970315;28;20200;-81
2021/01/27 11:25:53;;;;;;;4.07;3.58;;;;;;;2.79;81.97;98676.50;4958653;28;20395;-80
2021/01/27 11:28:21;;;;;;;6.57;3.50;;;;;;;2.82;81.21;98681.66;4952783;28;20255;-80
2021/01/27 11:30:49;;;;;;;4.32;3.30;;;;;;;2.73;81.54;98679.41;4956641;28;20224;-81
2021/01/27 11:33:20;;;;;;;3.60;3.28;;;;;;;2.82;81.43;98679.00;4969567;28;20267;-80
2021/01/27 11:35:47;;;;;;;4.22;3.83;;;;;;;2.84;81.96;98674.47;4962948;28;20905;-80
2021/01/27 11:38:16;;;;;;;3.83;3.42;;;;;;;2.61;82.14;98671.94;4960803;28;20196;-82
2021/01/27 11:40:50;;;;;;;6.38;5.07;;;;;;;2.55;82.59;98661.56;4944498;29;20231;-82
2021/01/27 11:43:17;;;;;;;6.50;4.43;;;;;;;2.62;82.94;98657.75;4947236;28;20224;-82
2021/01/27 11:45:43;;;;;;;5.20;3.85;;;;;;;2.68;83.16;98651.31;4944301;29;20229;-82
2021/01/27 11:48:29;;;;;;;6.65;4.85;;;;;;;2.55;83.26;98640.34;4937935;28;20299;-82
2021/01/27 11:50:55;;;;;;;6.53;4.65;;;;;;;2.59;83.07;98623.38;4953350;29;20239;-83
2021/01/27 11:53:22;;;;;;;4.95;4.28;;;;;;;2.75;83.23;98610.28;4945996;28;20224;-84
2021/01/27 11:55:48;;;;;;;4.07;3.53;;;;;;;2.64;82.63;98605.44;4955021;29;20825;-84
2021/01/27 11:58:20;;;;;;;7.43;5.07;;;;;;;2.84;82.60;98591.34;4954007;29;20238;-82
2021/01/27 12:00:48;;;;;;;6.35;3.97;;;;;;;2.77;81.86;98595.19;4929792;28;20233;-83
2021/01/27 12:03:14;;;;;;;5.50;4.30;;;;;;;2.98;81.66;98592.47;4949322;28;20221;-84
2021/01/27 12:05:40;;;;;;;4.50;3.97;;;;;;;2.88;80.32;98588.47;4945036;28;20223;-81
2021/01/27 12:08:07;;;;;;;6.93;4.00;;;;;;;2.76;81.25;98581.03;4953465;29;20586;-83
2021/01/27 12:10:33;;;;;;;7.03;5.05;;;;;;;2.75;81.52;98586.41;4943327;28;20216;-83
2021/01/27 12:13:00;;;;;;;7.03;4.97;;;;;;;2.85;81.44;98590.41;4953123;28;20236;-84
2021/01/27 12:15:26;;;;;;;4.93;4.43;;;;;;;2.77;81.18;98588.06;4952225;28;20315;-83